• Join FlightAware (Why Join?)
  • Login
  • US Flag 
06:33AM EST


 

Airport Tracker/Info


-or-


 

Live Flight TrackerFlight Track Log ✈ SKW6306 ✈ 28-Jun-2013 ✈ KDEN - KPSP

Flight Track Log - Related Links

Times and Time Zones

All times are in EDT time to prevent confusion due to time zone crossing. See the SKW6306 flight status page for this flight to view local times or setup timezone preferences in your user account.

Time Position Orientation Groundspeed Altitude Reporting Facility
EDT Latitude Longitude Course Direction KTS MPH feet Rate Location/Type
09:37PM 39.8667 -104.6000 108° East 172 198 6,500  Level Denver TRACON
09:38PM 39.8500 -104.5333 108° East 223 257 7,800 1,320 Climbing Denver TRACON
09:39PM 39.8139 -104.4408 117° Southeast 260 299 9,300 1,440 Climbing Denver Center
09:40PM 39.7542 -104.3822 143° Southeast 293 337 11,000 1,500 Climbing Denver Center
09:41PM 39.6633 -104.3806 179° South 302 348 12,500 1,320 Climbing Denver Center
09:42PM 39.5700 -104.3778 179° South 329 379 13,800 1,380 Climbing Denver Center
09:43PM 39.4756 -104.3717 177° South 339 390 15,400 1,260 Climbing Denver Center
09:44PM 39.3719 -104.3669 178° South 345 397 16,500 900 Climbing Denver Center
09:45PM 39.2706 -104.3589 176° South 366 421 17,300 600 Climbing Denver Center
09:46PM 39.1606 -104.3669 183° South 381 438 17,800 720 Climbing Denver Center
09:47PM 39.0508 -104.3750 183° South 380 437 18,800 900 Climbing Denver Center
09:48PM 38.9439 -104.3842 184° South 395 455 19,700 960 Climbing Denver Center
09:49PM 38.8192 -104.3922 183° South 401 461 20,800 960 Climbing Denver Center
09:50PM 38.7131 -104.3975 182° South 400 460 21,800 720 Climbing Denver Center
09:51PM 38.5900 -104.4072 184° South 396 456 22,300 480 Climbing Denver Center
09:52PM 38.4833 -104.4144 183° South 400 460 22,800 480 Climbing Denver Center
09:53PM 38.3544 -104.4253 184° South 411 473 23,300 480 Climbing Denver Center
09:54PM 38.2753 -104.5078 219° Southwest 399 459 23,800 480 Climbing Denver Center
09:55PM 38.2189 -104.6489 243° Southwest 398 458 24,300 480 Climbing Denver Center
09:56PM 38.1594 -104.7636 237° Southwest 404 465 24,800 480 Climbing Denver Center
09:57PM 38.0919 -104.9053 239° Southwest 415 478 25,400 480 Climbing Denver Center
09:58PM 38.0592 -105.0383 253° West 416 479 25,900 480 Climbing Denver Center
09:59PM 38.0200 -105.1958 253° West 420 483 26,400 480 Climbing Denver Center
10:00PM 37.9878 -105.3311 253° West 420 483 26,900 480 Climbing Denver Center
10:01PM 37.9492 -105.4881 253° West 419 482 27,500 480 Climbing Denver Center
10:03PM 37.9156 -105.6225 252° West 418 481 28,000 420 Climbing Denver Center
10:04PM 37.8825 -105.7567 253° West 416 479 28,400 420 Climbing Denver Center
10:05PM 37.8433 -105.9125 252° West 417 480 28,900 360 Climbing Denver Center
10:06PM 37.8097 -106.0481 253° West 420 483 29,200 300 Climbing Denver Center
10:07PM 37.7728 -106.1928 252° West 421 484 29,600 300 Climbing Denver Center
10:08PM 37.7331 -106.3503 252° West 421 484 29,900 240 Climbing Denver Center
10:09PM 37.6981 -106.4872 252° West 426 490 30,200 240 Climbing Denver Center
10:10PM 37.6558 -106.6478 252° West 431 496 30,500 240 Climbing Denver Center
10:11PM 37.6203 -106.7847 252° West 431 496 30,800 240 Climbing Denver Center
10:12PM 37.5786 -106.9456 252° West 431 496 31,100 240 Climbing Denver Center
10:13PM 37.5422 -107.0822 251° West 432 497 31,400 420 Climbing Denver Center
10:14PM 37.5003 -107.2428 252° West 431 496 32,000 240 Climbing Denver Center
10:15PM 37.4656 -107.3772 252° West 423 487 32,000  Level Denver Center
10:16PM 37.4289 -107.5131 251° West 427 491 32,000  Level Denver Center
10:17PM 37.3850 -107.6742 251° West 434 499 32,000  Level Denver Center
10:18PM 37.3472 -107.8122 251° West 437 503 32,000  Level Denver Center
10:19PM 37.3047 -107.9761 252° West 439 505 32,000  Level Denver Center
10:20PM 37.2661 -108.1142 251° West 440 506 32,000  Level Denver Center
10:21PM 37.2206 -108.2769 251° West 443 510 32,000  Level Denver Center
10:22PM 37.1828 -108.4178 251° West 445 512 32,000  Level Denver Center
10:23PM 37.1369 -108.5800 251° West 442 509 32,000  Level Denver Center
10:24PM 37.0869 -108.7144 245° Southwest 448 516 32,000  Level Denver Center
10:25PM 37.0239 -108.8667 243° Southwest 446 513 32,000  Level Denver Center
10:26PM 36.9853 -109.0078 251° West 449 517 32,000  Level Denver Center
10:27PM 36.9397 -109.1728 251° West 451 519 32,000  Level Denver Center
10:28PM 36.9011 -109.3125 251° West 447 514 32,000  Level Denver Center
10:29PM 36.8617 -109.4556 251° West 453 521 32,000  Level Denver Center
10:30PM 36.8139 -109.6217 250° West 455 524 32,000  Level Denver Center
10:31PM 36.7733 -109.7644 251° West 457 526 32,000  Level Denver Center
10:32PM 36.7264 -109.9272 250° West 451 519 32,000  Level Denver Center
10:33PM 36.6861 -110.0675 250° West 449 517 32,000  Level Denver Center
10:34PM 36.6533 -110.2133 254° West 452 520 32,000  Level Denver Center
10:35PM 36.6289 -110.3958 261° West 448 516 32,000  Level Denver Center
10:37PM 36.6083 -110.5497 261° West 450 518 32,000  Level Denver Center
10:38PM 36.5897 -110.7019 261° West 446 513 32,000  Level Denver Center
10:39PM 36.5667 -110.8550 259° West 448 516 32,000  Level Denver Center
10:40PM 36.5264 -111.0011 251° West 444 511 32,000  Level Denver Center
10:41PM 36.4756 -111.1456 246° West 450 518 32,000 -300 Level Denver Center
10:42PM 36.4256 -111.2919 247° West 456 525 31,500 -540 Descending Denver Center
10:43PM 36.3744 -111.4403 247° West 463 533 31,000 -540 Descending Denver Center
10:44PM 36.3131 -111.6208 247° West 471 542 30,400 -540 Descending Denver Center
10:45PM 36.2597 -111.7728 247° West 477 549 30,000 -240 Descending Denver Center
10:46PM 36.2075 -111.9217 247° West 474 545 30,000  Level Denver Center
10:47PM 36.1564 -112.0686 247° West 467 537 30,000  Level Denver Center
10:48PM 36.1006 -112.2261 246° West 464 534 30,000  Level Los Angeles Center
10:49PM 36.0522 -112.3589 246° West 457 526 30,000  Level Los Angeles Center
10:50PM 35.9642 -112.5125 235° Southwest 457 526 30,000  Level Los Angeles Center
10:51PM 35.9014 -112.6194 234° Southwest 456 525 30,000  Level Los Angeles Center
10:52PM 35.8417 -112.7194 234° Southwest 456 525 30,000  Level Los Angeles Center
10:53PM 35.7372 -112.8956 234° Southwest 460 529 30,000  Level Los Angeles Center
10:54PM 35.6542 -113.0314 233° Southwest 459 528 30,000  Level Los Angeles Center
10:55PM 35.5778 -113.1572 233° Southwest 458 527 30,000  Level Los Angeles Center
10:56PM 35.5000 -113.2858 233° Southwest 464 534 30,000  Level Los Angeles Center
10:57PM 35.4358 -113.3939 234° Southwest 463 533 30,000  Level Los Angeles Center
10:58PM 35.3431 -113.5439 233° Southwest 466 536 30,000  Level Los Angeles Center
10:59PM 35.2669 -113.6694 233° Southwest 464 534 30,000  Level Los Angeles Center
11:00PM 35.1908 -113.7950 233° Southwest 464 534 30,000  Level Los Angeles Center
11:01PM 35.0978 -113.9450 233° Southwest 460 529 30,000  Level Los Angeles Center
11:02PM 35.0194 -114.0692 232° Southwest 460 529 30,000  Level Los Angeles Center
11:03PM 34.9406 -114.1972 233° Southwest 466 536 30,000  Level Los Angeles Center
11:04PM 34.8622 -114.3203 232° Southwest 458 527 30,000  Level Los Angeles Center
11:05PM 34.7842 -114.4439 232° Southwest 459 528 30,000  Level Los Angeles Center
11:06PM 34.7047 -114.5675 232° Southwest 461 531 30,000  Level Los Angeles Center
11:07PM 34.6286 -114.6803 231° Southwest 463 533 30,000 -660 Level Los Angeles Center
11:08PM 34.5319 -114.8264 231° Southwest 464 534 28,700 -1,680 Descending Los Angeles Center
11:09PM 34.4517 -114.9478 231° Southwest 463 533 26,600 -2,040 Descending Los Angeles Center
11:11PM 34.3753 -115.0642 232° Southwest 446 513 24,600 -1,980 Descending Los Angeles Center
11:12PM 34.3000 -115.1761 231° Southwest 433 498 22,600 -1,980 Descending Los Angeles Center
11:13PM 34.2242 -115.2892 231° Southwest 434 499 20,600 -1,320 Descending Los Angeles Center
11:14PM 34.1486 -115.4003 231° Southwest 431 496 20,000 -1,140 Descending Los Angeles Center
11:15PM 34.0933 -115.5175 240° Southwest 405 466 18,300 -2,400 Descending Los Angeles Center
11:16PM 34.0336 -115.6522 242° Southwest 382 440 15,100 -2,760 Descending Los Angeles Center
11:17PM 33.9839 -115.7597 241° Southwest 373 429 12,700 -2,100 Descending Los Angeles Center
11:18PM 33.9372 -115.8667 242° Southwest 368 423 10,900 -1,260 Descending Los Angeles Center
11:19PM 33.8986 -115.9556 242° Southwest 333 383 10,200 -1,740 Descending Los Angeles Center
11:20PM 33.8669 -116.0425 246° West 298 343 7,400 -1,860 Descending Los Angeles Center
11:21PM 33.8358 -116.1233 245° Southwest 283 326 6,500 -1,080 Descending Los Angeles Center
11:22PM 33.8097 -116.1903 245° Southwest 256 295 5,300 -1,080 Descending Los Angeles Center
11:23PM 33.8000 -116.3000 264° West 187 215 3,700 -1,020 Descending Southern California TRACON
11:24PM 33.7833 -116.3500 248° West 168 193 2,800 -600 Descending Southern California TRACON
11:25PM 33.7667 -116.4000 248° West 164 189 2,500 -600 Descending Southern California TRACON
11:26PM 33.7833 -116.4500 292° West 167 192 1,600 -900 Descending Southern California TRACON
11:27PM 33.8167 -116.5000 309° West 146 168 700 -840 Descending Southern California TRACON
11:29PM 33.8297 -116.5067 256° West  Level Estimated
11:36PM 33.8297 -116.5067 256° West  Level Estimated